Time;durP1;ratioP1;P1;durP2;ratioP2;P2;SDS_P1;SDS_P2;PMS_P1;PMS_P2;Temp;Humidity;BMP_temperature;BMP_pressure;BME280_temperature;BME280_humidity;BME280_pressure;Samples;Min_cycle;Max_cycle;Signal;HPM_P1;HPM_P2
2021/11/09 00:00:45;;;;;;;;;63.25;51.50;;;;;;;;4761595;29;47602;-81
2021/11/09 00:03:45;;;;;;;;;57.00;45.25;;;;;;;;4763919;29;45404;-81
2021/11/09 00:06:25;;;;;;;;;59.50;48.75;;;;;;;;4763944;29;45379;-81
2021/11/09 00:09:19;;;;;;;;;63.00;49.75;;;;;;;;4764765;29;45577;-81
2021/11/09 00:12:05;;;;;;;;;52.25;43.75;;;;;;;;4749223;29;46922;-82
2021/11/09 00:14:40;;;;;;;;;54.00;45.25;;;;;;;;4728438;29;45795;-82
2021/11/09 00:17:17;;;;;;;;;57.67;46.67;;;;;;;;4727898;29;45441;-82
2021/11/09 00:19:52;;;;;;;;;60.33;47.67;;;;;;;;4728540;29;45606;-82
2021/11/09 00:22:22;;;;;;;;;56.00;45.67;;;;;;;;4718569;29;46680;-82
2021/11/09 00:28:14;;;;;;;;;53.00;43.33;;;;;;;;4690376;30;44918;-83
2021/11/09 00:30:41;;;;;;;;;56.75;47.00;;;;;;;;4691358;30;45626;-81
2021/11/09 00:35:45;;;;;;;;;47.67;43.00;;;;;;;;4105747;26;45427;-81
2021/11/09 00:38:35;;;;;;;;;51.67;43.67;;;;;;;;4854875;29;45724;-80
2021/11/09 00:41:08;;;;;;;;;54.00;45.00;;;;;;;;4856167;29;45571;-81
2021/11/09 00:43:44;;;;;;;;;49.67;43.33;;;;;;;;4857576;29;45264;-82
2021/11/09 00:49:26;;;;;;;;;;;;;;;;;;;;;
2021/11/09 00:51:51;;;;;;;;;49.67;41.67;;;;;;;;4866189;29;67091;-81
2021/11/09 00:54:17;;;;;;;;;52.67;45.00;;;;;;;;4857213;29;45469;-81
2021/11/09 00:59:35;;;;;;;;;52.67;43.67;;;;;;;;4870460;29;45271;-81
2021/11/09 01:02:01;;;;;;;;;44.33;39.00;;;;;;;;4856581;29;45546;-81
2021/11/09 01:05:23;;;;;;;;;;;;;;;;;;;;;
2021/11/09 01:08:06;;;;;;;;;;;;;;;;;;;;;
2021/11/09 01:10:35;;;;;;;;;51.00;41.33;;;;;;;;4872143;29;67411;-81
2021/11/09 01:13:36;;;;;;;;;43.67;38.00;;;;;;;;4855274;29;44959;-81
2021/11/09 01:16:21;;;;;;;;;47.67;41.00;;;;;;;;4874432;29;45230;-81
2021/11/09 01:18:52;;;;;;;;;40.67;37.67;;;;;;;;4856879;29;45348;-81
2021/11/09 01:24:07;;;;;;;;;43.67;37.33;;;;;;;;4858610;29;45453;-81
2021/11/09 01:27:01;;;;;;;;;35.67;33.00;;;;;;;;4856773;29;46846;-81
2021/11/09 01:29:37;;;;;;;;;39.67;36.67;;;;;;;;4855387;29;45477;-81
2021/11/09 01:32:08;;;;;;;;;39.33;34.67;;;;;;;;4856841;29;45500;-80
2021/11/09 01:34:44;;;;;;;;;;;;;;;;;;;;;
2021/11/09 01:37:25;;;;;;;;;30.33;27.67;;;;;;;;4911213;28;74363;-81
2021/11/09 01:39:57;;;;;;;;;36.00;33.00;;;;;;;;4893679;29;45436;-81
2021/11/09 01:42:31;;;;;;;;;40.33;36.67;;;;;;;;4894058;28;45409;-81
2021/11/09 01:44:58;;;;;;;;;36.67;34.33;;;;;;;;4911340;29;45294;-82
2021/11/09 01:50:47;;;;;;;;;41.33;40.00;;;;;;;;4911188;29;44880;-82
2021/11/09 01:53:12;;;;;;;;;46.00;37.67;;;;;;;;4893278;29;45481;-81
2021/11/09 01:58:58;;;;;;;;;62.75;50.00;;;;;;;;4842350;29;45507;-81
2021/11/09 02:01:33;;;;;;;;;67.25;54.25;;;;;;;;4851858;29;45500;-82
2021/11/09 02:04:03;;;;;;;;;57.00;46.50;;;;;;;;4835940;29;45560;-82
2021/11/09 02:07:04;;;;;;;;;60.50;49.75;;;;;;;;4849753;29;45619;-82
2021/11/09 02:09:38;;;;;;;;;54.33;42.00;;;;;;;;4833481;29;46574;-82
2021/11/09 02:12:22;;;;;;;;;52.00;42.33;;;;;;;;4849302;29;45442;-82
2021/11/09 02:14:47;;;;;;;;;43.33;41.00;;;;;;;;4834066;29;45434;-80
2021/11/09 02:17:21;;;;;;;;;45.33;40.00;;;;;;;;4849985;29;45355;-82
2021/11/09 02:19:50;;;;;;;;;41.33;36.67;;;;;;;;4848719;29;46618;-81
2021/11/09 02:22:21;;;;;;;;;39.33;36.33;;;;;;;;4835418;29;45600;-80
2021/11/09 02:24:55;;;;;;;;;38.33;35.33;;;;;;;;4834168;29;44774;-80
2021/11/09 02:27:22;;;;;;;;;41.00;35.67;;;;;;;;4832662;29;45430;-80
2021/11/09 02:29:50;;;;;;;;;39.33;34.33;;;;;;;;4849373;29;45866;-81
2021/11/09 02:35:07;;;;;;;;;35.33;32.67;;;;;;;;4880641;29;45436;-81
2021/11/09 02:37:32;;;;;;;;;34.00;31.33;;;;;;;;4889482;28;45973;-81
2021/11/09 02:43:10;;;;;;;;;33.00;29.00;;;;;;;;4832884;29;45355;-81
2021/11/09 02:48:34;;;;;;;;;31.00;28.33;;;;;;;;4835464;29;44866;-80
2021/11/09 02:51:26;;;;;;;;;45.33;31.33;;;;;;;;4819287;29;47345;-81
2021/11/09 02:53:51;;;;;;;;;31.33;29.00;;;;;;;;4831245;29;45509;-80
2021/11/09 02:56:31;;;;;;;;;40.00;31.67;;;;;;;;4817277;29;44843;-80
2021/11/09 03:04:22;;;;;;;;;29.33;26.67;;;;;;;;4833955;29;45488;-81
2021/11/09 03:12:40;;;;;;;;;31.00;28.00;;;;;;;;4835025;29;45604;-81
2021/11/09 03:15:10;;;;;;;;;29.33;25.00;;;;;;;;4818250;29;45575;-81
2021/11/09 03:18:12;;;;;;;;;27.67;26.00;;;;;;;;4833932;29;45906;-81
2021/11/09 03:46:40;;;;;;;;;40.00;37.00;;;;;;;;4813714;29;45505;-81
2021/11/09 03:49:07;;;;;;;;;38.67;33.67;;;;;;;;4799698;29;45485;-81
2021/11/09 03:51:35;;;;;;;;;35.33;35.00;;;;;;;;4799770;29;45424;-81
2021/11/09 03:54:09;;;;;;;;;43.67;37.67;;;;;;;;4800101;29;45467;-81
2021/11/09 03:56:40;;;;;;;;;44.00;37.33;;;;;;;;4800206;29;48318;-82
2021/11/09 03:59:11;;;;;;;;;42.67;40.33;;;;;;;;4821390;29;45912;-81
2021/11/09 04:08:10;;;;;;;;;42.00;38.33;;;;;;;;4889646;28;45388;-81
2021/11/09 04:18:40;;;;;;;;;39.00;35.33;;;;;;;;4895171;28;45353;-82
2021/11/09 05:10:51;;;;;;;;;37.33;35.33;;;;;;;;4892298;28;44698;-81
2021/11/09 05:13:40;;;;;;;;;41.67;36.33;;;;;;;;4891252;28;45364;-81
2021/11/09 05:19:12;;;;;;;;;50.33;40.33;;;;;;;;4890452;29;44821;-81
2021/11/09 05:21:39;;;;;;;;;38.33;37.67;;;;;;;;4889029;28;45518;-81
2021/11/09 05:24:08;;;;;;;;;37.33;33.00;;;;;;;;4888842;28;47540;-81
2021/11/09 05:27:00;;;;;;;;;33.33;31.33;;;;;;;;4873619;29;45462;-81
2021/11/09 05:29:28;;;;;;;;;36.00;35.67;;;;;;;;4873817;29;45481;-81
2021/11/09 05:31:58;;;;;;;;;48.67;40.00;;;;;;;;4872832;29;45563;-81
2021/11/09 05:37:30;;;;;;;;;34.33;34.33;;;;;;;;4899993;28;45674;-81
2021/11/09 05:40:25;;;;;;;;;;;;;;;;;;;;;
2021/11/09 05:45:51;;;;;;;;;37.33;33.67;;;;;;;;4821358;29;45513;-83
2021/11/09 05:48:39;;;;;;;;;31.33;29.67;;;;;;;;4818786;29;45683;-82
2021/11/09 05:51:20;;;;;;;;;26.67;26.67;;;;;;;;4833993;29;45523;-82
2021/11/09 05:53:47;;;;;;;;;29.67;29.67;;;;;;;;4834236;29;45016;-81
2021/11/09 05:56:35;;;;;;;;;29.00;27.67;;;;;;;;4818571;29;46046;-82
2021/11/09 05:59:06;;;;;;;;;24.67;22.33;;;;;;;;4819324;29;45552;-82
2021/11/09 06:01:41;;;;;;;;;24.67;21.67;;;;;;;;4832713;29;45658;-81
2021/11/09 06:07:08;;;;;;;;;29.33;24.33;;;;;;;;4818800;29;46341;-81
2021/11/09 06:09:36;;;;;;;;;28.00;27.00;;;;;;;;4818095;29;45386;-82
2021/11/09 06:12:11;;;;;;;;;22.00;20.33;;;;;;;;4834114;29;45331;-81
2021/11/09 06:21:06;;;;;;;;;29.67;28.33;;;;;;;;4894130;28;44781;-82
2021/11/09 06:23:51;;;;;;;;;26.00;20.67;;;;;;;;4912843;29;45464;-82
2021/11/09 06:26:27;;;;;;;;;31.33;26.33;;;;;;;;4895953;28;45394;-82
2021/11/09 06:29:06;;;;;;;;;36.00;33.33;;;;;;;;4912479;29;45930;-82
2021/11/09 06:31:59;;;;;;;;;33.33;30.00;;;;;;;;4895933;29;45342;-82
2021/11/09 06:34:40;;;;;;;;;29.33;29.33;;;;;;;;4894747;28;45766;-82
2021/11/09 06:37:14;;;;;;;;;32.33;28.67;;;;;;;;4893512;29;45461;-82
2021/11/09 06:39:57;;;;;;;;;29.67;26.33;;;;;;;;4912350;28;45676;-82
2021/11/09 06:42:31;;;;;;;;;27.33;25.00;;;;;;;;4894698;29;45338;-82
2021/11/09 06:45:05;;;;;;;;;26.33;23.33;;;;;;;;4888675;29;44817;-81
2021/11/09 06:47:41;;;;;;;;;28.00;27.67;;;;;;;;4896674;28;45605;-81
2021/11/09 06:53:37;;;;;;;;;27.00;26.33;;;;;;;;4909885;29;45559;-81
2021/11/09 06:56:12;;;;;;;;;29.00;25.00;;;;;;;;4906705;29;45469;-81
2021/11/09 06:58:43;;;;;;;;;32.67;29.67;;;;;;;;4891161;29;45558;-81
2021/11/09 07:01:15;;;;;;;;;22.33;19.33;;;;;;;;4907953;29;45652;-82
2021/11/09 07:06:44;;;;;;;;;31.00;28.67;;;;;;;;4909390;29;45495;-81
2021/11/09 07:09:13;;;;;;;;;32.00;29.00;;;;;;;;4890811;29;45398;-81
2021/11/09 07:11:41;;;;;;;;;34.33;30.67;;;;;;;;4890662;29;46795;-81
2021/11/09 07:14:07;;;;;;;;;34.33;33.00;;;;;;;;4876385;29;45763;-82
2021/11/09 07:16:32;;;;;;;;;34.00;34.00;;;;;;;;4892286;29;45591;-82
2021/11/09 07:19:02;;;;;;;;;45.67;41.33;;;;;;;;4893362;29;45435;-82
2021/11/09 07:21:31;;;;;;;;;38.67;36.33;;;;;;;;4911427;29;45593;-83
2021/11/09 07:24:11;;;;;;;;;47.67;40.00;;;;;;;;4893321;29;45109;-82
2021/11/09 07:26:36;;;;;;;;;41.33;38.00;;;;;;;;4894081;29;45541;-83
2021/11/09 07:29:02;;;;;;;;;43.67;39.67;;;;;;;;4910739;29;45419;-81
2021/11/09 07:31:30;;;;;;;;;31.67;31.00;;;;;;;;4895822;29;46869;-81
2021/11/09 07:33:55;;;;;;;;;41.00;34.33;;;;;;;;4896673;28;45960;-82
2021/11/09 07:36:21;;;;;;;;;43.67;38.67;;;;;;;;4896075;28;45512;-82
2021/11/09 07:39:01;;;;;;;;;44.00;41.00;;;;;;;;4897745;28;45510;-82
2021/11/09 07:41:26;;;;;;;;;53.75;44.75;;;;;;;;4886343;28;47876;-82
2021/11/09 07:43:58;;;;;;;;;49.25;42.00;;;;;;;;4897956;28;45651;-82
2021/11/09 07:46:23;;;;;;;;;44.67;39.67;;;;;;;;4899654;29;45452;-82
2021/11/09 07:48:52;;;;;;;;;41.67;39.00;;;;;;;;4915571;28;45707;-82
2021/11/09 07:51:23;;;;;;;;;42.33;39.33;;;;;;;;4913383;28;45456;-83
2021/11/09 07:54:01;;;;;;;;;45.00;39.50;;;;;;;;4915493;29;45406;-82
2021/11/09 08:02:07;;;;;;;;;45.33;40.33;;;;;;;;4913226;28;45970;-82
2021/11/09 08:07:57;;;;;;;;;46.00;40.33;;;;;;;;4913693;28;44832;-81
2021/11/09 08:16:31;;;;;;;;;34.00;33.00;;;;;;;;4822260;29;44921;-82
2021/11/09 08:19:02;;;;;;;;;52.00;41.67;;;;;;;;4830534;29;44851;-81
2021/11/09 08:21:27;;;;;;;;;49.67;40.33;;;;;;;;4823041;29;45961;-81
2021/11/09 08:23:57;;;;;;;;;49.00;42.25;;;;;;;;4839531;29;45269;-82
2021/11/09 08:52:13;;;;;;;;;49.67;44.00;;;;;;;;4901283;29;45492;-82
2021/11/09 09:09:56;;;;;;;;;45.67;37.00;;;;;;;;4916125;28;45423;-84
2021/11/09 09:12:21;;;;;;;;;55.67;43.00;;;;;;;;4901666;29;45436;-82
2021/11/09 09:17:53;;;;;;;;;40.67;38.33;;;;;;;;4914761;29;44751;-83
2021/11/09 09:20:41;;;;;;;;;45.00;39.33;;;;;;;;4884822;29;45309;-82
2021/11/09 09:58:14;;;;;;;;;29.67;26.67;;;;;;;;4881153;29;45717;-83
2021/11/09 10:01:05;;;;;;;;;24.33;21.00;;;;;;;;4885048;29;44793;-82
2021/11/09 10:04:00;;;;;;;;;22.00;18.33;;;;;;;;4866736;29;45448;-83
2021/11/09 10:13:02;;;;;;;;;28.00;23.33;;;;;;;;4839974;29;44836;-85
2021/11/09 10:15:37;;;;;;;;;18.67;18.33;;;;;;;;4832678;29;45681;-84
2021/11/09 10:18:32;;;;;;;;;23.00;17.33;;;;;;;;4870389;29;45334;-82
2021/11/09 10:21:01;;;;;;;;;23.33;20.33;;;;;;;;4881895;29;46095;-82
2021/11/09 10:23:28;;;;;;;;;17.33;16.67;;;;;;;;4890993;29;45468;-81
2021/11/09 10:26:27;;;;;;;;;21.33;17.00;;;;;;;;4900313;29;45345;-82
2021/11/09 10:29:14;;;;;;;;;22.00;18.33;;;;;;;;4894184;29;45373;-83
2021/11/09 10:32:11;;;;;;;;;20.33;19.67;;;;;;;;4867741;29;45540;-83
2021/11/09 10:34:45;;;;;;;;;26.00;26.00;;;;;;;;4874474;29;45538;-82
2021/11/09 10:38:07;;;;;;;;;29.00;27.33;;;;;;;;4879120;29;44882;-84
2021/11/09 10:40:54;;;;;;;;;36.33;31.67;;;;;;;;4873631;29;45557;-82
2021/11/09 10:43:35;;;;;;;;;30.67;30.33;;;;;;;;4881182;29;45576;-82
2021/11/09 10:46:26;;;;;;;;;38.67;32.00;;;;;;;;4858185;29;44834;-84
2021/11/09 10:49:06;;;;;;;;;31.33;28.00;;;;;;;;4853588;29;45544;-84
2021/11/09 10:51:58;;;;;;;;;37.00;32.00;;;;;;;;4870705;29;45367;-83
2021/11/09 11:06:44;;;;;;;;;54.00;44.00;;;;;;;;4881881;29;45076;-83
2021/11/09 11:09:28;;;;;;;;;53.00;42.67;;;;;;;;4878627;29;44790;-82
2021/11/09 11:12:09;;;;;;;;;47.67;41.33;;;;;;;;4880503;29;45313;-83
2021/11/09 11:14:56;;;;;;;;;51.00;44.50;;;;;;;;4874492;29;45508;-83
2021/11/09 11:17:50;;;;;;;;;57.25;45.75;;;;;;;;4860761;29;45947;-83
2021/11/09 11:20:28;;;;;;;;;48.33;39.33;;;;;;;;4869023;29;45051;-84
2021/11/09 11:23:31;;;;;;;;;57.00;47.25;;;;;;;;4876880;29;44906;-85
2021/11/09 11:47:23;;;;;;;;;45.67;39.00;;;;;;;;5013948;23;46289;-85
2021/11/09 11:50:07;;;;;;;;;53.50;46.00;;;;;;;;4876920;29;44937;-82
2021/11/09 11:59:37;;;;;;;;;;;;;;;;;;;;;
2021/11/09 12:02:26;;;;;;;;;60.50;51.00;;;;;;;;4819989;29;66126;-83
2021/11/09 12:05:27;;;;;;;;;55.25;45.50;;;;;;;;4858184;29;45546;-85
2021/11/09 12:11:01;;;;;;;;;58.25;47.50;;;;;;;;4838846;29;45489;-82
2021/11/09 12:13:26;;;;;;;;;55.25;47.75;;;;;;;;4839926;29;45407;-84
2021/11/09 12:16:06;;;;;;;;;54.00;46.25;;;;;;;;4840791;29;46805;-83
2021/11/09 12:21:19;;;;;;;;;33.33;31.33;;;;;;;;4811912;29;44883;-82
2021/11/09 12:24:12;;;;;;;;;47.00;39.00;;;;;;;;4834283;29;45523;-82
2021/11/09 12:30:34;;;;;;;;;;;;;;;;;;;;;
2021/11/09 12:47:04;;;;;;;;;33.67;28.33;;;;;;;;4828697;29;44953;-84
2021/11/09 12:49:38;;;;;;;;;27.67;25.00;;;;;;;;4799366;29;45505;-86
2021/11/09 12:52:34;;;;;;;;;;;;;;;;;;;;;
2021/11/09 12:55:43;;;;;;;;;24.67;24.00;;;;;;;;4829133;29;67952;-87
2021/11/09 12:58:15;;;;;;;;;28.00;23.33;;;;;;;;4824720;29;44871;-82
2021/11/09 13:09:57;;;;;;;;;24.67;21.67;;;;;;;;4773890;29;45596;-82
2021/11/09 13:12:43;;;;;;;;;28.00;22.67;;;;;;;;4795363;29;46374;-85
2021/11/09 13:27:47;;;;;;;;;24.33;20.67;;;;;;;;4817046;29;45453;-84
2021/11/09 13:31:09;;;;;;;;;;;;;;;;;;;;;
2021/11/09 13:33:15;;;;;;;;;23.33;21.00;;;;;;;;4718561;30;44934;-84
2021/11/09 13:36:09;;;;;;;;;28.67;23.33;;;;;;;;4707304;30;45446;-83
2021/11/09 13:38:42;;;;;;;;;25.33;21.33;;;;;;;;4675503;30;44840;-83
2021/11/09 13:41:53;;;;;;;;;17.67;17.33;;;;;;;;4703898;29;45001;-83
2021/11/09 14:01:20;;;;;;;;;;;;;;;;;;;;;
2021/11/09 14:24:18;;;;;;;;;20.67;15.33;;;;;;;;4909986;28;45920;-85
2021/11/09 14:27:38;;;;;;;;;15.00;12.67;;;;;;;;4908316;29;45977;-84
2021/11/09 14:30:35;;;;;;;;;15.00;11.00;;;;;;;;4855340;29;45477;-85
2021/11/09 14:33:52;;;;;;;;;;;;;;;;;;;;;
2021/11/09 14:36:36;;;;;;;;;14.67;14.00;;;;;;;;4728317;29;46185;-83
2021/11/09 14:39:51;;;;;;;;;;;;;;;;;;;;;
2021/11/09 14:42:37;;;;;;;;;15.67;14.33;;;;;;;;4735603;30;45561;-84
2021/11/09 14:49:01;;;;;;;;;;;;;;;;;;;;;
2021/11/09 15:10:36;;;;;;;;;14.00;13.67;;;;;;;;4773961;29;45620;-83
2021/11/09 15:44:07;;;;;;;;;11.33;10.00;;;;;;;;4715584;30;45635;-85
2021/11/09 15:47:16;;;;;;;;;9.33;7.67;;;;;;;;4697746;30;44982;-84
2021/11/09 15:50:34;;;;;;;;;11.33;10.00;;;;;;;;4697283;30;45375;-85
2021/11/09 16:00:18;;;;;;;;;;;;;;;;;;;;;
2021/11/09 16:09:19;;;;;;;;;11.67;11.67;;;;;;;;4889577;29;45432;-84
2021/11/09 16:12:04;;;;;;;;;9.33;8.00;;;;;;;;4879500;29;45395;-84
2021/11/09 16:14:37;;;;;;;;;8.00;7.67;;;;;;;;4862859;29;47038;-85
2021/11/09 16:17:08;;;;;;;;;10.00;8.33;;;;;;;;4874079;29;45474;-84
2021/11/09 16:19:46;;;;;;;;;11.00;9.33;;;;;;;;4880979;29;45469;-84
2021/11/09 16:22:46;;;;;;;;;11.67;8.00;;;;;;;;4872056;29;45461;-85
2021/11/09 16:26:09;;;;;;;;;;;;;;;;;;;;;
2021/11/09 16:28:37;;;;;;;;;5.00;5.00;;;;;;;;4824187;29;72698;-84
2021/11/09 16:31:18;;;;;;;;;6.33;5.00;;;;;;;;4832155;29;45287;-86
2021/11/09 16:33:54;;;;;;;;;8.67;8.33;;;;;;;;4833343;29;44820;-84
2021/11/09 16:36:30;;;;;;;;;7.33;6.67;;;;;;;;4826179;29;45433;-84
2021/11/09 16:39:24;;;;;;;;;8.67;8.00;;;;;;;;4842970;29;45381;-86
2021/11/09 16:42:05;;;;;;;;;8.67;7.67;;;;;;;;4843370;29;44834;-86
2021/11/09 16:44:55;;;;;;;;;16.00;12.00;;;;;;;;4843039;29;45454;-85
2021/11/09 16:47:39;;;;;;;;;8.33;8.00;;;;;;;;4844390;29;48228;-86
2021/11/09 16:53:10;;;;;;;;;7.67;7.67;;;;;;;;4859412;29;45396;-86
2021/11/09 16:58:54;;;;;;;;;9.00;8.00;;;;;;;;4859718;29;45154;-85
2021/11/09 17:04:35;;;;;;;;;8.00;7.00;;;;;;;;4853704;29;44803;-85
2021/11/09 18:20:06;;;;;;;;;25.00;22.00;;;;;;;;4712353;30;46032;-86
2021/11/09 18:22:56;;;;;;;;;25.67;23.00;;;;;;;;4710130;30;44821;-86
2021/11/09 18:25:29;;;;;;;;;33.67;27.33;;;;;;;;4713626;30;45492;-86
2021/11/09 18:31:01;;;;;;;;;35.33;32.00;;;;;;;;4747936;29;45127;-85
2021/11/09 18:33:41;;;;;;;;;42.00;36.00;;;;;;;;4746809;29;44795;-86
2021/11/09 18:36:16;;;;;;;;;33.67;31.67;;;;;;;;4746669;29;45663;-85
2021/11/09 18:38:44;;;;;;;;;43.67;38.00;;;;;;;;4729327;30;45462;-85
2021/11/09 18:41:45;;;;;;;;;47.00;39.00;;;;;;;;4756690;29;46478;-86
2021/11/09 18:44:18;;;;;;;;;48.67;42.00;;;;;;;;4800264;29;45600;-85
2021/11/09 18:46:51;;;;;;;;;49.00;40.00;;;;;;;;4796184;29;45801;-85
2021/11/09 18:49:35;;;;;;;;;42.00;38.33;;;;;;;;4798934;29;45462;-86
2021/11/09 18:52:09;;;;;;;;;35.67;32.00;;;;;;;;4789563;29;45466;-86
2021/11/09 18:54:57;;;;;;;;;38.33;36.00;;;;;;;;4815990;29;45470;-86
2021/11/09 19:00:28;;;;;;;;;47.67;41.33;;;;;;;;4763064;29;44915;-85
2021/11/09 19:03:02;;;;;;;;;44.33;36.33;;;;;;;;4789095;29;45506;-85
2021/11/09 19:09:05;;;;;;;;;49.67;40.67;;;;;;;;4797004;29;45810;-86
2021/11/09 19:14:24;;;;;;;;;12.00;12.00;;;;;;;;4781651;29;45801;-86
2021/11/09 19:16:56;;;;;;;;;56.50;48.00;;;;;;;;4782579;29;45412;-86
2021/11/09 19:19:23;;;;;;;;;68.00;55.50;;;;;;;;4766743;29;45385;-86
2021/11/09 19:22:07;;;;;;;;;65.75;51.50;;;;;;;;4780535;29;45633;-86
2021/11/09 19:24:35;;;;;;;;;63.00;50.00;;;;;;;;4757010;29;45422;-86
2021/11/09 19:27:03;;;;;;;;;58.50;48.50;;;;;;;;4762600;29;44890;-86
2021/11/09 19:29:31;;;;;;;;;59.00;44.00;;;;;;;;4765631;29;45835;-84
2021/11/09 19:31:57;;;;;;;;;57.50;47.50;;;;;;;;4768188;29;45395;-84
2021/11/09 19:34:26;;;;;;;;;67.00;52.25;;;;;;;;4766964;29;45585;-84
2021/11/09 19:36:56;;;;;;;;;59.50;46.25;;;;;;;;4784656;29;45374;-85
2021/11/09 19:39:26;;;;;;;;;54.00;45.25;;;;;;;;4824005;29;44811;-84
2021/11/09 19:42:23;;;;;;;;;48.50;42.50;;;;;;;;4820478;29;45541;-84
2021/11/09 19:44:50;;;;;;;;;53.75;43.00;;;;;;;;4820646;29;45232;-85
2021/11/09 19:47:30;;;;;;;;;62.00;49.00;;;;;;;;4821784;29;45448;-85
2021/11/09 19:50:03;;;;;;;;;61.25;50.00;;;;;;;;4821477;29;45787;-85
2021/11/09 19:52:37;;;;;;;;;66.00;53.00;;;;;;;;4844861;29;45277;-85
2021/11/09 19:55:13;;;;;;;;;66.50;53.75;;;;;;;;4844087;29;45506;-85
2021/11/09 19:57:43;;;;;;;;;69.25;57.25;;;;;;;;4828289;29;44844;-85
2021/11/09 20:00:18;;;;;;;;;69.00;55.00;;;;;;;;4829127;29;44802;-84
2021/11/09 20:02:52;;;;;;;;;68.75;54.25;;;;;;;;4845879;29;44960;-84
2021/11/09 20:05:41;;;;;;;;;74.50;58.75;;;;;;;;4859939;29;46433;-84
2021/11/09 20:08:09;;;;;;;;;76.50;60.00;;;;;;;;4837676;29;45503;-84
2021/11/09 20:10:38;;;;;;;;;70.25;54.50;;;;;;;;4827163;29;44963;-85
2021/11/09 20:13:21;;;;;;;;;85.00;68.25;;;;;;;;4826502;29;45317;-84
2021/11/09 20:15:54;;;;;;;;;62.25;50.25;;;;;;;;4825872;29;46650;-84
2021/11/09 20:21:19;;;;;;;;;60.25;46.50;;;;;;;;4828655;29;45552;-84
2021/11/09 20:23:50;;;;;;;;;55.75;45.75;;;;;;;;4809765;29;45598;-84
2021/11/09 20:26:22;;;;;;;;;55.50;44.25;;;;;;;;4821921;29;45506;-84
2021/11/09 20:28:51;;;;;;;;;58.00;47.50;;;;;;;;4809122;29;44855;-85
2021/11/09 20:34:13;;;;;;;;;64.50;51.00;;;;;;;;4814776;29;44879;-85
2021/11/09 20:36:45;;;;;;;;;68.50;55.25;;;;;;;;4810730;29;45585;-84
2021/11/09 20:39:17;;;;;;;;;69.75;55.50;;;;;;;;4812846;29;44786;-85
2021/11/09 20:41:48;;;;;;;;;69.25;55.00;;;;;;;;4827294;29;45480;-85
2021/11/09 20:44:19;;;;;;;;;78.25;61.75;;;;;;;;4860310;29;44959;-85
2021/11/09 20:46:45;;;;;;;;;74.25;58.25;;;;;;;;4825626;29;45543;-86
2021/11/09 20:49:19;;;;;;;;;72.50;58.00;;;;;;;;4843296;29;44857;-86
2021/11/09 20:51:49;;;;;;;;;75.00;61.00;;;;;;;;4829884;29;45628;-84
2021/11/09 20:54:15;;;;;;;;;84.75;63.00;;;;;;;;4842473;29;45343;-84
2021/11/09 20:57:02;;;;;;;;;81.00;65.25;;;;;;;;4858676;29;46328;-84
2021/11/09 21:00:03;;;;;;;;;68.00;55.75;;;;;;;;4839180;29;45371;-85
2021/11/09 21:02:33;;;;;;;;;69.75;53.75;;;;;;;;4785099;29;44884;-84
2021/11/09 21:05:02;;;;;;;;;70.00;57.00;;;;;;;;4769486;29;45568;-84
2021/11/09 21:07:31;;;;;;;;;60.25;51.50;;;;;;;;4783551;29;47835;-85
2021/11/09 21:10:09;;;;;;;;;65.25;52.50;;;;;;;;4801687;29;45470;-85
2021/11/09 21:12:46;;;;;;;;;71.50;56.25;;;;;;;;4787317;29;44911;-85
2021/11/09 21:23:52;;;;;;;;;66.75;51.75;;;;;;;;4797675;29;44907;-84
2021/11/09 21:26:29;;;;;;;;;58.75;47.75;;;;;;;;4800666;29;45475;-85
2021/11/09 21:36:46;;;;;;;;;64.50;51.25;;;;;;;;4802091;29;45586;-85
2021/11/09 21:39:17;;;;;;;;;64.75;53.25;;;;;;;;4820269;29;45251;-86
2021/11/09 21:41:49;;;;;;;;;70.50;55.50;;;;;;;;4856829;29;45512;-86
2021/11/09 21:44:16;;;;;;;;;68.25;54.00;;;;;;;;4857578;29;44764;-86
2021/11/09 21:46:57;;;;;;;;;;;;;;;;;;;;;
2021/11/09 21:49:24;;;;;;;;;59.25;49.75;;;;;;;;4856394;29;74371;-85
2021/11/09 21:51:53;;;;;;;;;66.25;54.00;;;;;;;;4824550;29;45414;-85
2021/11/09 21:54:24;;;;;;;;;56.25;46.00;;;;;;;;4856013;29;45570;-85
2021/11/09 21:56:50;;;;;;;;;59.50;48.75;;;;;;;;4856546;29;44985;-85
2021/11/09 21:59:34;;;;;;;;;59.25;49.00;;;;;;;;4857389;29;45323;-85
2021/11/09 22:02:03;;;;;;;;;53.25;45.50;;;;;;;;4842067;29;44787;-85
2021/11/09 22:04:32;;;;;;;;;54.50;44.00;;;;;;;;4856640;29;45465;-85
2021/11/09 22:06:58;;;;;;;;;54.75;47.50;;;;;;;;4841214;29;45280;-85
2021/11/09 22:09:24;;;;;;;;;60.25;48.25;;;;;;;;4813541;29;45411;-85
2021/11/09 22:12:03;;;;;;;;;65.00;50.75;;;;;;;;4820367;29;45435;-85
2021/11/09 22:14:35;;;;;;;;;60.25;50.25;;;;;;;;4812726;29;45432;-85
2021/11/09 22:17:01;;;;;;;;;64.75;51.00;;;;;;;;4837203;29;45646;-85
2021/11/09 22:19:31;;;;;;;;;65.50;49.75;;;;;;;;4837271;29;45500;-85
2021/11/09 22:22:00;;;;;;;;;58.25;49.50;;;;;;;;4838272;29;45389;-85
2021/11/09 22:24:27;;;;;;;;;61.25;50.25;;;;;;;;4837698;29;45397;-85
2021/11/09 22:26:55;;;;;;;;;63.00;51.25;;;;;;;;4837158;29;45836;-85
2021/11/09 22:29:28;;;;;;;;;63.50;50.00;;;;;;;;4837264;29;45606;-84
2021/11/09 22:31:54;;;;;;;;;58.25;43.75;;;;;;;;4836121;29;45393;-85
2021/11/09 22:34:25;;;;;;;;;58.00;47.50;;;;;;;;4822074;29;45403;-85
2021/11/09 22:36:58;;;;;;;;;43.25;38.00;;;;;;;;4836779;29;45521;-84
2021/11/09 22:39:24;;;;;;;;;55.00;46.50;;;;;;;;4822701;29;45504;-85
2021/11/09 22:41:53;;;;;;;;;63.25;47.25;;;;;;;;4838235;29;45464;-85
2021/11/09 22:44:20;;;;;;;;;58.00;48.50;;;;;;;;4840351;29;45487;-84
2021/11/09 22:46:45;;;;;;;;;57.75;47.75;;;;;;;;4840875;29;45367;-85
2021/11/09 22:49:15;;;;;;;;;59.00;48.75;;;;;;;;4838902;29;45566;-85
2021/11/09 22:51:43;;;;;;;;;60.75;49.25;;;;;;;;4857453;29;45562;-84
2021/11/09 22:57:31;;;;;;;;;64.00;50.50;;;;;;;;4857534;29;44882;-85
2021/11/09 23:00:00;;;;;;;;;67.75;52.00;;;;;;;;4853980;29;45655;-85
2021/11/09 23:02:28;;;;;;;;;62.00;50.75;;;;;;;;4840467;29;45743;-85
2021/11/09 23:05:00;;;;;;;;;68.75;53.00;;;;;;;;4858249;29;45458;-84
2021/11/09 23:07:30;;;;;;;;;64.50;53.75;;;;;;;;4845107;29;45464;-85
2021/11/09 23:10:09;;;;;;;;;58.25;49.00;;;;;;;;4861430;29;45469;-85
2021/11/09 23:12:49;;;;;;;;;;;;;;;;;;;;;
2021/11/09 23:15:20;;;;;;;;;61.25;50.75;;;;;;;;4877130;29;68123;-85
2021/11/09 23:17:56;;;;;;;;;;;;;;;;;;;;;
2021/11/09 23:20:25;;;;;;;;;60.25;50.25;;;;;;;;4862228;29;74394;-85
2021/11/09 23:23:04;;;;;;;;;56.50;48.25;;;;;;;;4861921;29;45393;-85
2021/11/09 23:25:39;;;;;;;;;58.00;49.25;;;;;;;;4878970;29;44778;-85
2021/11/09 23:28:13;;;;;;;;;63.50;53.50;;;;;;;;4861631;29;45521;-84
2021/11/09 23:30:44;;;;;;;;;56.00;47.25;;;;;;;;4861339;29;45964;-85
2021/11/09 23:33:17;;;;;;;;;60.75;51.50;;;;;;;;4846872;29;44855;-84
2021/11/09 23:35:45;;;;;;;;;63.00;52.50;;;;;;;;4878212;29;45387;-85
2021/11/09 23:38:11;;;;;;;;;62.75;51.75;;;;;;;;4861717;29;45456;-84
2021/11/09 23:40:38;;;;;;;;;61.50;50.00;;;;;;;;4860832;29;45832;-85
2021/11/09 23:43:08;;;;;;;;;58.50;47.75;;;;;;;;4860457;29;45267;-85
2021/11/09 23:45:38;;;;;;;;;47.25;42.00;;;;;;;;4846342;29;45376;-85
2021/11/09 23:48:06;;;;;;;;;49.00;40.00;;;;;;;;4845331;29;45332;-85
2021/11/09 23:50:35;;;;;;;;;57.25;46.50;;;;;;;;4845588;29;48115;-85
2021/11/09 23:56:09;;;;;;;;;47.67;38.33;;;;;;;;4868200;29;44870;-85
2021/11/09 23:58:40;;;;;;;;;49.00;40.00;;;;;;;;4861041;29;45709;-85
